Terminal Aerodrome Forecast
Issued by NWS Buffalo, NY

Home | Current Version | Previous Version | Text Only | Print | Product List | Glossary On
Versions: 1 2 3 4 5 6 7 8 9 10 11 12 13 14 15 16 17 18 19 20 21 22 23 24 25
000
FTUS41 KBUF 260500
TAFROC
TAF
KROC 260520Z 2606/2706 22004KT P6SM SCT250
     FM261200 21005KT P6SM BKN120
     FM261600 22010KT P6SM OVC080
     FM262300 22006KT P6SM VCSH BKN060
     FM270200 21006KT 6SM -SHRA BKN045=

USA.gov is the U.S. government's official web portal to all federal, state and local government web resources and services.